Time;durP1;ratioP1;P1;durP2;ratioP2;P2;SDS_P1;SDS_P2;PMS_P1;PMS_P2;Temp;Humidity;BMP_temperature;BMP_pressure;BME280_temperature;BME280_humidity;BME280_pressure;Samples;Min_cycle;Max_cycle;Signal;HPM_P1;HPM_P2
2023/05/01 00:02:18;;;;;;;7.47;4.70;;;9.80;87.40;;;;;;5072905;28;20581;-69
2023/05/01 00:05:08;;;;;;;10.90;4.85;;;9.70;87.80;;;;;;5070772;28;20219;-65
2023/05/01 00:07:57;;;;;;;8.85;4.55;;;9.70;87.70;;;;;;5105111;27;20244;-67
2023/05/01 00:10:46;;;;;;;8.48;5.00;;;9.80;88.10;;;;;;5065630;28;20311;-68
2023/05/01 00:13:36;;;;;;;10.48;4.72;;;9.70;88.20;;;;;;5068017;28;20565;-66
2023/05/01 00:16:25;;;;;;;11.45;4.45;;;9.50;89.00;;;;;;5076816;28;20288;-69
2023/05/01 00:19:17;;;;;;;8.05;4.18;;;9.30;90.00;;;;;;5064511;28;20228;-68
2023/05/01 00:22:06;;;;;;;11.18;4.78;;;9.20;90.30;;;;;;5075149;28;20247;-68
2023/05/01 00:24:54;;;;;;;8.55;4.88;;;9.20;90.20;;;;;;5075657;28;20239;-68
2023/05/01 00:27:43;;;;;;;10.93;5.05;;;9.30;90.20;;;;;;5073315;28;20236;-68
2023/05/01 00:30:34;;;;;;;10.65;4.50;;;9.40;90.10;;;;;;5069443;28;20228;-67
2023/05/01 00:33:23;;;;;;;8.00;4.38;;;9.50;90.00;;;;;;5086405;28;20254;-68
2023/05/01 00:36:11;;;;;;;13.02;5.00;;;9.40;89.90;;;;;;5077083;28;20687;-69
2023/05/01 00:39:00;;;;;;;9.48;4.50;;;9.30;90.30;;;;;;5074470;28;20769;-68
2023/05/01 00:41:49;;;;;;;9.35;4.38;;;9.40;90.20;;;;;;5076816;28;20247;-68
2023/05/01 00:44:38;;;;;;;7.78;4.63;;;9.40;90.20;;;;;;5073062;28;20207;-72
2023/05/01 00:47:28;;;;;;;9.60;4.15;;;9.50;90.10;;;;;;5071537;28;20249;-67
2023/05/01 00:50:17;;;;;;;12.27;4.95;;;9.20;90.40;;;;;;5066474;28;20602;-68
2023/05/01 00:53:06;;;;;;;9.70;4.57;;;9.40;90.50;;;;;;5078429;28;20223;-69
2023/05/01 00:55:58;;;;;;;8.93;3.95;;;9.40;90.20;;;;;;5066166;28;20228;-70
2023/05/01 00:58:51;;;;;;;9.43;4.50;;;9.30;90.10;;;;;;5098200;27;20223;-69
2023/05/01 01:01:42;;;;;;;8.85;4.05;;;9.20;90.00;;;;;;5083812;27;20881;-69
2023/05/01 01:04:33;;;;;;;9.73;4.00;;;9.40;90.10;;;;;;5073603;28;20219;-69
2023/05/01 01:07:32;;;;;;;8.25;4.10;;;9.20;89.80;;;;;;5071659;28;20211;-69
2023/05/01 01:10:30;;;;;;;9.88;4.28;;;9.30;90.30;;;;;;5074269;28;20232;-68
2023/05/01 01:13:28;;;;;;;13.88;4.85;;;9.10;90.20;;;;;;5069635;28;20855;-68
2023/05/01 01:16:21;;;;;;;9.02;4.30;;;8.90;90.50;;;;;;5072858;28;20224;-69
2023/05/01 01:19:30;;;;;;;8.27;4.45;;;9.00;90.70;;;;;;5093916;27;20300;-67
2023/05/01 01:22:23;;;;;;;10.20;4.47;;;9.10;90.70;;;;;;5068863;28;20215;-68
2023/05/01 01:25:47;;;;;;;8.63;4.18;;;9.20;90.60;;;;;;5069783;28;20214;-69
2023/05/01 01:29:04;;;;;;;10.27;4.80;;;9.30;90.70;;;;;;5071625;28;20961;-68
2023/05/01 01:32:04;;;;;;;12.35;5.25;;;9.20;90.70;;;;;;5072263;28;20290;-68
2023/05/01 01:35:01;;;;;;;10.45;5.20;;;9.20;90.80;;;;;;5077097;28;20726;-67
2023/05/01 01:37:57;;;;;;;12.93;5.13;;;9.00;91.10;;;;;;5098339;28;20338;-67
2023/05/01 01:40:55;;;;;;;9.50;5.03;;;9.00;91.40;;;;;;5065613;28;20362;-66
2023/05/01 01:43:46;;;;;;;9.77;4.97;;;;;;;;;;5068255;28;20669;-67
2023/05/01 01:46:39;;;;;;;10.20;5.18;;;8.90;91.70;;;;;;5071006;28;20402;-67
2023/05/01 01:49:31;;;;;;;13.07;5.40;;;9.10;91.80;;;;;;5076230;28;20216;-68
2023/05/01 01:52:24;;;;;;;12.00;5.68;;;9.00;91.60;;;;;;5062245;28;20543;-68
2023/05/01 01:55:13;;;;;;;13.48;6.20;;;9.00;91.40;;;;;;5095174;27;20223;-67
2023/05/01 01:58:04;;;;;;;10.68;5.05;;;8.90;91.80;;;;;;5067351;28;20235;-67
2023/05/01 02:00:55;;;;;;;12.55;5.55;;;9.10;91.60;;;;;;5068206;28;20784;-67
2023/05/01 02:03:47;;;;;;;9.63;5.00;;;8.90;91.60;;;;;;5069687;28;20301;-68
2023/05/01 02:06:37;;;;;;;10.10;5.53;;;9.10;91.60;;;;;;5068328;28;20235;-67
2023/05/01 02:09:30;;;;;;;15.07;6.00;;;9.30;91.40;;;;;;5070565;28;20719;-66
2023/05/01 02:12:19;;;;;;;11.82;5.20;;;9.30;91.20;;;;;;5062676;28;20629;-66
2023/05/01 02:15:11;;;;;;;10.23;5.32;;;9.30;91.20;;;;;;5068237;28;20232;-67
2023/05/01 02:18:03;;;;;;;10.98;5.28;;;9.40;91.10;;;;;;5070504;28;20216;-68
2023/05/01 02:20:53;;;;;;;11.13;5.90;;;9.40;91.10;;;;;;5072218;28;20226;-67
2023/05/01 02:23:43;;;;;;;9.82;5.72;;;9.30;91.10;;;;;;5080912;28;20273;-66
2023/05/01 02:26:42;;;;;;;9.30;5.40;;;9.50;91.00;;;;;;5071080;27;20359;-66
2023/05/01 02:29:32;;;;;;;12.80;5.38;;;9.30;91.30;;;;;;5068569;28;20224;-67
2023/05/01 02:32:21;;;;;;;13.00;6.20;;;9.40;91.20;;;;;;5069401;28;20265;-68
2023/05/01 02:35:10;;;;;;;15.18;5.72;;;9.30;91.30;;;;;;5097602;27;20685;-68
2023/05/01 02:37:59;;;;;;;11.35;5.43;;;9.30;91.30;;;;;;5073648;28;20630;-67
2023/05/01 02:40:52;;;;;;;13.00;5.80;;;9.20;91.60;;;;;;5073973;28;20227;-68
2023/05/01 02:43:43;;;;;;;13.57;5.97;;;9.20;92.00;;;;;;5076606;28;20228;-67
2023/05/01 02:46:36;;;;;;;14.43;6.28;;;9.20;92.10;;;;;;5075465;28;20769;-67
2023/05/01 02:49:27;;;;;;;9.90;6.20;;;9.10;92.30;;;;;;5077153;28;20274;-70
2023/05/01 02:52:18;;;;;;;16.55;6.45;;;9.10;92.50;;;;;;5075922;28;20219;-68
2023/05/01 02:55:09;;;;;;;13.10;6.45;;;9.30;92.80;;;;;;5072854;28;20651;-68
2023/05/01 02:57:59;;;;;;;12.68;6.43;;;9.20;92.80;;;;;;5072706;28;20219;-67
2023/05/01 03:00:50;;;;;;;14.02;6.88;;;9.10;93.10;;;;;;5099645;27;20594;-67
2023/05/01 03:03:40;;;;;;;14.88;7.40;;;9.00;93.30;;;;;;5095464;27;20220;-67
2023/05/01 03:06:29;;;;;;;13.55;7.20;;;9.10;93.60;;;;;;5068463;28;20602;-67
2023/05/01 03:09:18;;;;;;;14.73;7.63;;;9.20;93.50;;;;;;5071468;28;20337;-67
2023/05/01 03:12:07;;;;;;;17.95;7.15;;;8.90;93.80;;;;;;5077044;28;20220;-69
2023/05/01 03:14:56;;;;;;;14.27;6.90;;;8.70;94.20;;;;;;5069198;27;20215;-68
2023/05/01 03:17:46;;;;;;;13.00;6.95;;;8.50;94.70;;;;;;5070049;28;20277;-67
2023/05/01 03:20:35;;;;;;;16.02;6.30;;;8.70;94.60;;;;;;5087371;28;20220;-67
2023/05/01 03:23:26;;;;;;;17.85;6.70;;;9.00;94.20;;;;;;5080323;28;20224;-69
2023/05/01 03:26:15;;;;;;;16.40;6.65;;;9.00;94.10;;;;;;5075068;28;20893;-66
2023/05/01 03:29:04;;;;;;;14.98;7.57;;;8.90;93.90;;;;;;5103947;27;20298;-67
2023/05/01 03:31:56;;;;;;;13.23;7.00;;;8.90;93.90;;;;;;5072521;28;20236;-68
2023/05/01 03:34:46;;;;;;;13.55;7.18;;;8.80;93.90;;;;;;5066393;28;20236;-67
2023/05/01 03:37:36;;;;;;;14.18;6.38;;;8.70;94.00;;;;;;5072792;28;20361;-67
2023/05/01 03:40:25;;;;;;;15.75;6.93;;;8.80;94.00;;;;;;5075245;28;20690;-68
2023/05/01 03:43:49;;;;;;;13.20;6.63;;;8.80;94.00;;;;;;5017891;28;20237;-66
2023/05/01 03:46:51;;;;;;;12.45;6.80;;;8.90;94.10;;;;;;5067413;28;20223;-67
2023/05/01 03:49:48;;;;;;;13.73;6.68;;;8.90;93.80;;;;;;5083421;28;20223;-66
2023/05/01 03:52:37;;;;;;;13.15;6.60;;;8.70;94.10;;;;;;5081842;27;20216;-67
2023/05/01 03:55:26;;;;;;;13.85;6.38;;;8.80;94.40;;;;;;5072086;28;20764;-67
2023/05/01 03:58:14;;;;;;;16.30;6.55;;;8.80;94.30;;;;;;5104947;27;20223;-67
2023/05/01 04:01:04;;;;;;;17.25;7.05;;;8.90;94.00;;;;;;5071555;28;20224;-67
2023/05/01 04:03:56;;;;;;;13.10;6.72;;;9.10;93.90;;;;;;5068009;28;20319;-66
2023/05/01 04:06:47;;;;;;;10.85;6.72;;;8.90;94.10;;;;;;5068018;28;20231;-67
2023/05/01 04:09:36;;;;;;;13.65;6.50;;;8.90;94.00;;;;;;5083807;28;20222;-67
2023/05/01 04:12:25;;;;;;;10.77;5.93;;;9.00;93.70;;;;;;5068469;28;20681;-69
2023/05/01 04:15:14;;;;;;;14.73;6.70;;;9.10;93.70;;;;;;5100409;27;20277;-69
2023/05/01 04:18:03;;;;;;;13.35;6.63;;;8.80;93.90;;;;;;5072242;28;20223;-70
2023/05/01 04:20:52;;;;;;;12.50;6.57;;;9.10;93.90;;;;;;5082913;28;20232;-68
2023/05/01 04:23:43;;;;;;;12.77;6.03;;;9.00;93.30;;;;;;5068289;28;20223;-68
2023/05/01 04:26:32;;;;;;;12.35;7.10;;;9.20;93.20;;;;;;5069681;28;20224;-67
2023/05/01 04:29:22;;;;;;;16.17;6.22;;;9.30;92.70;;;;;;5067033;28;20345;-66
2023/05/01 04:32:16;;;;;;;14.10;6.28;;;9.40;92.60;;;;;;5064926;28;20541;-66
2023/05/01 04:35:05;;;;;;;13.07;6.55;;;9.20;92.60;;;;;;5066958;28;20213;-65
2023/05/01 04:37:54;;;;;;;11.52;5.93;;;9.10;92.70;;;;;;5069428;28;20247;-67
2023/05/01 04:40:45;;;;;;;15.65;6.63;;;9.40;92.90;;;;;;5096690;27;20220;-68
2023/05/01 04:43:33;;;;;;;13.02;5.80;;;9.60;92.50;;;;;;5075743;28;20221;-68
2023/05/01 04:46:23;;;;;;;12.35;6.00;;;9.40;92.50;;;;;;5081343;28;20215;-69
2023/05/01 04:49:14;;;;;;;10.95;5.25;;;9.60;92.50;;;;;;5073898;28;20297;-67
2023/05/01 04:52:03;;;;;;;10.77;6.15;;;9.70;92.10;;;;;;5083555;28;20223;-70
2023/05/01 04:55:03;;;;;;;9.13;4.78;;;9.70;91.90;;;;;;5066584;28;20220;-67
2023/05/01 04:57:57;;;;;;;7.55;4.18;;;9.90;91.80;;;;;;5090371;28;20215;-67
2023/05/01 05:00:46;;;;;;;9.50;4.72;;;9.90;91.40;;;;;;5071541;28;20222;-67
2023/05/01 05:03:41;;;;;;;11.52;4.97;;;10.20;90.80;;;;;;5077613;28;20238;-66
2023/05/01 05:06:32;;;;;;;8.32;4.10;;;10.20;90.70;;;;;;5075461;28;20220;-68
2023/05/01 05:09:21;;;;;;;7.72;4.03;;;10.50;91.00;;;;;;5071836;28;20602;-74
2023/05/01 05:12:09;;;;;;;7.85;4.28;;;10.70;90.00;;;;;;5080002;28;20216;-71
2023/05/01 05:15:00;;;;;;;9.73;4.57;;;10.50;89.20;;;;;;5086586;28;20832;-72
2023/05/01 05:17:50;;;;;;;9.30;3.85;;;10.60;89.20;;;;;;5099772;27;20902;-72
2023/05/01 05:20:41;;;;;;;11.65;3.95;;;10.80;88.60;;;;;;5073267;28;20224;-72
2023/05/01 05:23:30;;;;;;;6.72;4.15;;;11.00;86.70;;;;;;5077840;28;20223;-69
2023/05/01 05:26:19;;;;;;;6.63;3.47;;;10.70;87.00;;;;;;5102819;27;20224;-71
2023/05/01 05:29:09;;;;;;;7.80;3.58;;;10.60;86.10;;;;;;5073515;28;20754;-71
2023/05/01 05:31:59;;;;;;;9.27;3.88;;;10.80;85.60;;;;;;5075674;28;20380;-70
2023/05/01 05:34:48;;;;;;;8.80;4.00;;;11.00;85.00;;;;;;5075112;28;20231;-69
2023/05/01 05:37:37;;;;;;;12.93;4.53;;;11.00;86.10;;;;;;5074484;28;20708;-69
2023/05/01 05:40:27;;;;;;;9.32;4.68;;;11.20;85.80;;;;;;5099547;27;20216;-72
2023/05/01 05:43:17;;;;;;;10.02;4.80;;;11.20;86.90;;;;;;5073892;28;20235;-70
2023/05/01 05:46:06;;;;;;;13.30;5.15;;;11.00;87.20;;;;;;5069356;28;20260;-72
2023/05/01 05:48:58;;;;;;;11.57;5.03;;;11.30;88.50;;;;;;5075920;28;20847;-73
2023/05/01 05:51:48;;;;;;;7.72;5.05;;;11.40;87.70;;;;;;5075626;28;20227;-71
2023/05/01 05:54:37;;;;;;;6.72;3.92;;;11.50;86.40;;;;;;5100879;27;20239;-70
2023/05/01 05:57:26;;;;;;;5.57;3.40;;;11.60;84.50;;;;;;5079381;28;20252;-70
2023/05/01 06:00:16;;;;;;;7.32;3.50;;;12.00;83.20;;;;;;5069760;28;20224;-69
2023/05/01 06:03:09;;;;;;;7.95;3.90;;;12.80;80.60;;;;;;5071586;28;20231;-68
2023/05/01 06:05:59;;;;;;;7.97;4.00;;;12.90;78.30;;;;;;5068103;28;20251;-69
2023/05/01 06:08:48;;;;;;;7.70;3.90;;;12.40;79.80;;;;;;5094718;27;20246;-69
2023/05/01 06:11:37;;;;;;;6.60;3.38;;;12.20;80.10;;;;;;5068940;28;20231;-71
2023/05/01 06:14:26;;;;;;;7.00;2.97;;;11.70;77.50;;;;;;5097685;27;20375;-71
2023/05/01 06:17:15;;;;;;;10.40;3.58;;;11.80;78.00;;;;;;5074690;28;20217;-70
2023/05/01 06:20:05;;;;;;;6.90;3.13;;;12.20;79.60;;;;;;5066924;28;20228;-70
2023/05/01 06:22:57;;;;;;;6.07;3.30;;;11.90;75.30;;;;;;5100564;27;20232;-70
2023/05/01 06:25:53;;;;;;;7.13;3.47;;;12.10;77.60;;;;;;5101253;27;20216;-70
2023/05/01 06:28:42;;;;;;;6.72;3.40;;;13.40;74.00;;;;;;5074430;28;20236;-69
2023/05/01 06:31:31;;;;;;;7.43;3.13;;;13.80;73.00;;;;;;5097618;27;20212;-68
2023/05/01 06:34:19;;;;;;;7.35;3.65;;;13.50;71.30;;;;;;5086304;28;20221;-69
2023/05/01 06:37:13;;;;;;;5.13;3.13;;;13.00;70.60;;;;;;5098376;27;20216;-69
2023/05/01 06:40:03;;;;;;;6.45;3.28;;;13.00;73.70;;;;;;5076440;28;20372;-70
2023/05/01 06:42:52;;;;;;;5.28;3.15;;;13.40;72.90;;;;;;5095133;27;20224;-69
2023/05/01 06:45:46;;;;;;;6.63;3.67;;;12.90;72.20;;;;;;5068657;28;20315;-67
2023/05/01 06:48:35;;;;;;;8.00;3.25;;;13.40;72.60;;;;;;5072945;28;20274;-68
2023/05/01 06:51:24;;;;;;;5.95;3.08;;;13.40;73.30;;;;;;5070567;28;20717;-69
2023/05/01 06:54:13;;;;;;;7.30;3.30;;;14.00;71.60;;;;;;5074703;28;20228;-67
2023/05/01 06:57:04;;;;;;;7.40;3.42;;;14.10;71.20;;;;;;5084344;28;20219;-69
2023/05/01 06:59:54;;;;;;;6.45;3.15;;;14.50;71.40;;;;;;5069545;27;20250;-70
2023/05/01 07:02:47;;;;;;;6.47;3.00;;;14.70;70.10;;;;;;5070127;28;20234;-69
2023/05/01 07:05:39;;;;;;;5.40;3.17;;;14.70;69.50;;;;;;5072977;28;20232;-70
2023/05/01 07:08:28;;;;;;;6.43;3.72;;;14.80;68.80;;;;;;5070117;28;20302;-71
2023/05/01 07:11:17;;;;;;;7.05;3.10;;;15.00;68.90;;;;;;5086463;28;20231;-70
2023/05/01 07:14:10;;;;;;;5.85;3.30;;;15.50;68.30;;;;;;5095523;27;20238;-69
2023/05/01 07:16:59;;;;;;;4.72;2.78;;;15.60;66.80;;;;;;5076118;28;20241;-68
2023/05/01 07:19:49;;;;;;;7.03;3.28;;;15.60;65.90;;;;;;5079537;28;20539;-68
2023/05/01 07:22:38;;;;;;;5.97;3.10;;;15.50;66.30;;;;;;5091209;27;20226;-71
2023/05/01 07:25:27;;;;;;;8.43;2.97;;;15.60;65.30;;;;;;5076545;28;20247;-70
2023/05/01 07:28:16;;;;;;;6.78;3.13;;;15.50;66.20;;;;;;5077936;28;20234;-69
2023/05/01 07:31:07;;;;;;;6.05;2.95;;;15.90;66.70;;;;;;5047739;28;20258;-68
2023/05/01 07:33:56;;;;;;;6.28;3.13;;;15.90;64.70;;;;;;5071768;28;20222;-68
2023/05/01 07:36:49;;;;;;;6.63;3.70;;;16.20;65.90;;;;;;5072245;28;20757;-70
2023/05/01 07:39:38;;;;;;;6.35;3.00;;;16.70;64.80;;;;;;5070654;28;20679;-69
2023/05/01 07:42:27;;;;;;;6.20;3.22;;;16.20;63.70;;;;;;5067581;28;20231;-71
2023/05/01 07:45:16;;;;;;;7.32;3.47;;;16.20;63.90;;;;;;5073624;28;20304;-68
2023/05/01 07:48:06;;;;;;;5.50;3.08;;;16.40;63.30;;;;;;5087901;27;20228;-70
2023/05/01 07:50:56;;;;;;;5.72;3.10;;;17.00;63.40;;;;;;5064963;28;20266;-69
2023/05/01 07:53:46;;;;;;;9.38;3.33;;;17.00;62.20;;;;;;5070905;28;20284;-70
2023/05/01 07:56:36;;;;;;;6.82;3.25;;;17.10;61.50;;;;;;5057521;28;20239;-70
2023/05/01 07:59:25;;;;;;;7.10;3.17;;;17.40;64.60;;;;;;5066281;28;20220;-71
2023/05/01 08:02:16;;;;;;;7.95;3.53;;;18.00;61.60;;;;;;5071814;28;20729;-69
2023/05/01 08:05:08;;;;;;;7.70;3.33;;;18.60;60.10;;;;;;5055329;28;20631;-69
2023/05/01 08:07:57;;;;;;;8.82;3.83;;;17.90;60.40;;;;;;5079096;28;20882;-70
2023/05/01 08:10:46;;;;;;;6.63;3.67;;;18.30;60.80;;;;;;5072693;28;20227;-70
2023/05/01 08:13:34;;;;;;;5.57;3.00;;;18.60;58.60;;;;;;5062297;28;21746;-68
2023/05/01 08:16:23;;;;;;;7.25;3.53;;;18.50;58.60;;;;;;5070110;28;20219;-69
2023/05/01 08:19:12;;;;;;;7.75;3.63;;;18.70;59.90;;;;;;5077683;28;20234;-69
2023/05/01 08:22:03;;;;;;;6.95;3.75;;;19.10;58.50;;;;;;5069702;28;20239;-70
2023/05/01 08:24:52;;;;;;;5.70;3.40;;;19.60;58.60;;;;;;5067980;28;20317;-70
2023/05/01 08:27:40;;;;;;;5.82;3.30;;;20.40;58.30;;;;;;5060090;28;20274;-69
2023/05/01 08:30:30;;;;;;;7.03;3.85;;;20.60;57.30;;;;;;5073575;28;20710;-75
2023/05/01 08:33:19;;;;;;;7.32;3.42;;;20.90;56.30;;;;;;5072338;28;20259;-71
2023/05/01 08:36:09;;;;;;;6.13;3.10;;;20.70;56.10;;;;;;5074972;28;20613;-69
2023/05/01 08:39:00;;;;;;;6.38;3.85;;;21.00;57.00;;;;;;5073384;28;20381;-71
2023/05/01 08:41:49;;;;;;;4.95;2.83;;;21.40;54.50;;;;;;5075694;28;20227;-70
2023/05/01 08:44:40;;;;;;;6.10;3.10;;;20.70;54.60;;;;;;5069838;28;20270;-71
2023/05/01 08:47:29;;;;;;;7.13;2.80;;;21.00;54.70;;;;;;5070566;28;20216;-70
2023/05/01 08:50:19;;;;;;;5.90;3.30;;;20.70;54.60;;;;;;5074317;28;20246;-72
2023/05/01 08:53:12;;;;;;;5.57;3.20;;;20.80;54.90;;;;;;5071962;28;20236;-71
2023/05/01 08:56:06;;;;;;;7.82;3.30;;;21.30;56.00;;;;;;5065884;28;20922;-70
2023/05/01 08:58:58;;;;;;;7.05;3.45;;;22.00;54.60;;;;;;5066364;28;20235;-72
2023/05/01 09:01:47;;;;;;;5.63;3.22;;;22.20;52.70;;;;;;5071033;28;20345;-72
2023/05/01 09:04:39;;;;;;;5.47;3.20;;;20.80;53.20;;;;;;5068680;28;20710;-71
2023/05/01 09:07:29;;;;;;;5.75;3.05;;;21.30;53.80;;;;;;5079499;28;20956;-72
2023/05/01 09:10:19;;;;;;;5.03;2.85;;;21.30;53.80;;;;;;5072856;28;20311;-70
2023/05/01 09:13:10;;;;;;;5.13;2.50;;;22.30;54.10;;;;;;5065561;28;21031;-68
2023/05/01 09:15:59;;;;;;;7.15;3.05;;;23.20;52.10;;;;;;5072573;28;20231;-69
2023/05/01 09:18:49;;;;;;;7.22;3.05;;;22.70;51.40;;;;;;5079121;28;20243;-71
2023/05/01 09:21:37;;;;;;;4.07;2.80;;;22.40;50.60;;;;;;5078594;28;20219;-69
2023/05/01 09:24:27;;;;;;;5.20;3.05;;;23.10;50.20;;;;;;5070570;28;20268;-69
2023/05/01 09:27:16;;;;;;;5.57;3.13;;;23.40;49.80;;;;;;5077438;28;20749;-67
2023/05/01 09:30:07;;;;;;;5.25;3.10;;;23.30;50.60;;;;;;5070596;28;20211;-69
2023/05/01 09:33:08;;;;;;;7.15;3.10;;;23.60;54.30;;;;;;5076610;28;20222;-69
2023/05/01 09:35:58;;;;;;;4.55;2.60;;;23.80;67.00;;;;;;5063918;28;20236;-70
2023/05/01 09:38:47;;;;;;;6.50;2.67;;;;;;;;;;5070271;28;20223;-69
2023/05/01 09:41:51;;;;;;;7.65;3.10;;;25.40;48.60;;;;;;5070061;28;20231;-68
2023/05/01 09:44:44;;;;;;;5.50;3.05;;;26.10;47.40;;;;;;5069326;28;20338;-69
2023/05/01 09:47:34;;;;;;;5.63;3.03;;;25.80;46.50;;;;;;5075742;28;20216;-69
2023/05/01 09:50:31;;;;;;;5.32;3.17;;;25.90;46.60;;;;;;5071215;28;20227;-70
2023/05/01 09:53:19;;;;;;;5.30;3.05;;;27.70;50.00;;;;;;5074338;28;20267;-70
2023/05/01 09:56:09;;;;;;;6.55;2.88;;;28.30;46.50;;;;;;5073711;28;20607;-71
2023/05/01 09:59:14;;;;;;;6.68;3.13;;;29.20;44.20;;;;;;5072009;28;21615;-69
2023/05/01 10:02:02;;;;;;;8.52;3.47;;;29.50;42.80;;;;;;5065630;28;20384;-71
2023/05/01 10:04:58;;;;;;;8.55;3.40;;;29.50;42.50;;;;;;5075567;28;20228;-69
2023/05/01 10:07:58;;;;;;;4.00;2.72;;;28.90;41.70;;;;;;5069572;28;20303;-68
2023/05/01 10:11:00;;;;;;;4.85;2.90;;;28.70;42.10;;;;;;5074229;28;20310;-69
2023/05/01 10:14:06;;;;;;;4.93;2.80;;;30.60;46.90;;;;;;5073078;27;20406;-71
2023/05/01 10:16:56;;;;;;;9.27;3.30;;;31.60;43.20;;;;;;5075409;28;20236;-70
2023/05/01 10:19:46;;;;;;;6.63;2.72;;;31.70;58.00;;;;;;5074695;28;20231;-69
2023/05/01 10:22:36;;;;;;;7.13;2.92;;;30.50;52.60;;;;;;5091976;27;20330;-71
2023/05/01 10:25:27;;;;;;;4.38;2.78;;;30.10;46.10;;;;;;5078643;28;20226;-70
2023/05/01 10:28:16;;;;;;;4.72;2.47;;;31.60;46.90;;;;;;5068943;28;20219;-69
2023/05/01 10:31:06;;;;;;;4.65;2.92;;;30.40;42.80;;;;;;5071775;28;20220;-66
2023/05/01 10:33:56;;;;;;;4.82;2.80;;;32.10;43.20;;;;;;5075050;28;20237;-69
2023/05/01 10:36:47;;;;;;;7.07;3.00;;;32.10;41.40;;;;;;5073328;28;20699;-69
2023/05/01 10:39:37;;;;;;;5.32;2.97;;;32.30;40.70;;;;;;5070119;28;20232;-66
2023/05/01 10:42:27;;;;;;;5.82;3.10;;;32.80;36.80;;;;;;5084715;28;20223;-67
2023/05/01 10:45:30;;;;;;;4.57;2.47;;;35.20;34.60;;;;;;5068639;28;20238;-69
2023/05/01 10:48:52;;;;;;;4.43;2.63;;;36.20;32.30;;;;;;5101184;27;20234;-70
2023/05/01 10:51:59;;;;;;;6.38;3.03;;;35.30;32.00;;;;;;5081581;28;20588;-71
2023/05/01 10:54:50;;;;;;;4.97;3.17;;;35.50;32.20;;;;;;5071988;28;20231;-68
2023/05/01 10:57:43;;;;;;;5.05;2.85;;;35.40;33.00;;;;;;5067398;28;20601;-69
2023/05/01 11:00:33;;;;;;;4.40;2.80;;;36.30;32.20;;;;;;5073837;28;20881;-67
2023/05/01 11:03:39;;;;;;;5.38;2.72;;;36.50;32.80;;;;;;5074703;28;20227;-69
2023/05/01 11:06:27;;;;;;;9.25;3.47;;;36.70;32.20;;;;;;5068378;28;20636;-69
2023/05/01 11:09:36;;;;;;;4.57;2.92;;;37.30;31.50;;;;;;5077735;28;20242;-68
2023/05/01 11:12:50;;;;;;;5.38;2.70;;;36.90;31.20;;;;;;5068823;28;20694;-70
2023/05/01 11:15:39;;;;;;;6.10;3.00;;;37.60;31.90;;;;;;5079234;28;20211;-69
2023/05/01 11:18:46;;;;;;;10.13;2.85;;;38.10;30.40;;;;;;5079788;28;20223;-71
2023/05/01 11:21:37;;;;;;;4.40;2.70;;;38.60;30.80;;;;;;5079283;28;20728;-68
2023/05/01 11:24:32;;;;;;;3.50;2.25;;;36.60;30.90;;;;;;5069521;28;20223;-70
2023/05/01 11:27:21;;;;;;;5.03;2.40;;;38.30;30.80;;;;;;5074137;28;20809;-68
2023/05/01 11:30:13;;;;;;;4.70;2.35;;;39.30;31.00;;;;;;5075252;28;20226;-68
2023/05/01 11:33:03;;;;;;;3.92;2.70;;;38.70;29.90;;;;;;5077750;28;20221;-70
2023/05/01 11:35:59;;;;;;;2.45;1.85;;;40.60;29.40;;;;;;5074535;28;20278;-66
2023/05/01 11:38:51;;;;;;;2.83;2.20;;;41.50;28.40;;;;;;5081470;28;20231;-70
2023/05/01 11:41:40;;;;;;;4.07;2.42;;;42.20;28.60;;;;;;5091280;27;20211;-68
2023/05/01 11:44:29;;;;;;;4.95;2.60;;;43.40;28.20;;;;;;5076386;28;20328;-70
2023/05/01 11:47:20;;;;;;;5.32;2.35;;;44.40;27.50;;;;;;5084895;28;20219;-72
2023/05/01 11:50:10;;;;;;;3.35;2.03;;;43.40;27.00;;;;;;5067775;28;20229;-69
2023/05/01 11:52:59;;;;;;;3.33;2.10;;;42.50;27.30;;;;;;5079765;27;20914;-66
2023/05/01 11:55:48;;;;;;;3.88;2.35;;;42.60;27.10;;;;;;5067516;28;20228;-70
2023/05/01 11:58:37;;;;;;;4.22;2.10;;;42.50;28.10;;;;;;5082661;27;20222;-70
2023/05/01 12:01:37;;;;;;;3.17;2.10;;;42.10;28.10;;;;;;5075656;27;20223;-71
2023/05/01 12:04:28;;;;;;;2.30;2.10;;;44.20;26.60;;;;;;5072062;28;20221;-69
2023/05/01 12:07:23;;;;;;;2.50;2.08;;;44.10;26.50;;;;;;5077302;28;20223;-68
2023/05/01 12:10:12;;;;;;;3.28;2.13;;;44.40;26.60;;;;;;5068594;28;20249;-69
2023/05/01 12:13:02;;;;;;;2.65;2.10;;;;;;;;;;5075725;28;20265;-68
2023/05/01 12:15:52;;;;;;;5.82;2.40;;;43.50;25.10;;;;;;5084400;28;20380;-66
2023/05/01 12:18:43;;;;;;;3.50;2.00;;;43.30;26.70;;;;;;5078626;28;20230;-67
2023/05/01 12:21:36;;;;;;;5.28;2.10;;;41.60;27.00;;;;;;5072492;28;20602;-67
2023/05/01 12:24:25;;;;;;;3.83;2.13;;;38.40;26.90;;;;;;5070974;28;20231;-69
2023/05/01 12:27:14;;;;;;;4.00;2.50;;;33.50;28.90;;;;;;5075435;28;20238;-67
2023/05/01 12:30:03;;;;;;;4.05;2.30;;;30.10;30.40;;;;;;5065924;28;20230;-69
2023/05/01 12:32:52;;;;;;;3.85;2.30;;;28.20;32.10;;;;;;5071259;28;20234;-68
2023/05/01 12:35:44;;;;;;;2.88;2.17;;;26.60;33.80;;;;;;5067170;28;20526;-67
2023/05/01 12:38:35;;;;;;;5.60;2.50;;;25.20;35.60;;;;;;5094644;27;20234;-69
2023/05/01 12:41:33;;;;;;;5.13;2.40;;;24.30;36.00;;;;;;5076769;28;20219;-70
2023/05/01 12:44:23;;;;;;;4.65;2.15;;;24.40;36.50;;;;;;5075274;28;20600;-69
2023/05/01 12:47:12;;;;;;;3.97;2.40;;;23.50;37.50;;;;;;5075417;28;20222;-68
2023/05/01 12:50:03;;;;;;;3.88;2.15;;;23.00;38.90;;;;;;5075095;27;20226;-68
2023/05/01 12:52:52;;;;;;;4.70;2.20;;;22.70;39.90;;;;;;5067692;28;20227;-68
2023/05/01 12:55:47;;;;;;;6.35;2.40;;;23.30;40.20;;;;;;5072316;28;20226;-67
2023/05/01 12:58:37;;;;;;;2.80;2.20;;;22.70;39.40;;;;;;5069773;28;20219;-69
2023/05/01 13:01:27;;;;;;;4.63;2.30;;;22.30;39.80;;;;;;5071184;28;20695;-70
2023/05/01 13:04:21;;;;;;;4.88;2.47;;;22.20;40.30;;;;;;5065998;28;20236;-68
2023/05/01 13:07:12;;;;;;;5.32;2.30;;;21.80;40.50;;;;;;5067304;28;20310;-69
2023/05/01 13:10:05;;;;;;;7.10;2.60;;;22.10;40.60;;;;;;5062924;28;20739;-69
2023/05/01 13:12:55;;;;;;;3.97;2.33;;;22.10;40.40;;;;;;5072203;28;20228;-70
2023/05/01 13:15:44;;;;;;;4.28;2.40;;;21.80;41.00;;;;;;5073615;28;20220;-67
2023/05/01 13:18:33;;;;;;;6.68;2.67;;;21.60;41.50;;;;;;5067445;28;20231;-70
2023/05/01 13:21:24;;;;;;;3.50;2.33;;;21.80;41.20;;;;;;5068413;28;20224;-69
2023/05/01 13:24:14;;;;;;;4.45;2.10;;;;;;;;;;5071652;28;20228;-69
2023/05/01 13:27:04;;;;;;;4.20;2.20;;;21.70;40.00;;;;;;5076995;28;20392;-67
2023/05/01 13:29:56;;;;;;;7.10;2.10;;;21.30;38.60;;;;;;5075201;28;20228;-66
2023/05/01 13:32:47;;;;;;;5.78;2.03;;;21.20;40.50;;;;;;5067239;28;20242;-68
2023/05/01 13:35:38;;;;;;;3.67;2.00;;;;;;;;;;5074020;28;20235;-69
2023/05/01 13:38:26;;;;;;;3.88;2.33;;;21.50;40.00;;;;;;5069460;28;20226;-69
2023/05/01 13:41:19;;;;;;;3.53;2.15;;;21.30;40.60;;;;;;5067485;28;20296;-67
2023/05/01 13:44:12;;;;;;;3.90;2.22;;;20.90;40.50;;;;;;5073815;28;20219;-69
2023/05/01 13:47:03;;;;;;;4.97;2.30;;;20.90;40.90;;;;;;5069089;28;20223;-70
2023/05/01 13:49:52;;;;;;;3.80;1.98;;;21.00;41.50;;;;;;5073505;28;20223;-71
2023/05/01 13:52:43;;;;;;;5.50;2.08;;;20.90;41.30;;;;;;5062704;28;20220;-69
2023/05/01 13:55:32;;;;;;;7.10;2.67;;;20.90;41.70;;;;;;5069907;28;20314;-70
2023/05/01 13:58:21;;;;;;;4.05;2.00;;;20.80;42.50;;;;;;5070920;28;20243;-70
2023/05/01 14:01:15;;;;;;;5.45;2.03;;;20.60;43.00;;;;;;5066036;28;20220;-71
2023/05/01 14:04:10;;;;;;;4.22;2.13;;;20.20;43.10;;;;;;5060419;28;20287;-70
2023/05/01 14:07:00;;;;;;;8.40;2.15;;;20.20;43.30;;;;;;5066714;28;20218;-71
2023/05/01 14:09:54;;;;;;;2.60;2.17;;;20.50;44.50;;;;;;5076088;28;20771;-71
2023/05/01 14:12:44;;;;;;;5.32;2.45;;;20.60;43.90;;;;;;5083910;28;20220;-70
2023/05/01 14:15:34;;;;;;;4.93;2.20;;;20.50;43.90;;;;;;5065257;28;20224;-72
2023/05/01 14:18:23;;;;;;;4.43;2.10;;;20.40;44.00;;;;;;5071481;28;20416;-70
2023/05/01 14:21:14;;;;;;;4.63;2.00;;;20.30;44.30;;;;;;5067046;28;20220;-70
2023/05/01 14:24:04;;;;;;;6.50;2.50;;;20.40;45.30;;;;;;5069083;28;20305;-71
2023/05/01 14:26:52;;;;;;;6.53;2.35;;;20.30;44.20;;;;;;5073934;28;20238;-71
2023/05/01 14:29:43;;;;;;;4.15;2.25;;;20.40;44.80;;;;;;5070703;28;20721;-69
2023/05/01 14:32:40;;;;;;;3.63;2.08;;;20.40;45.50;;;;;;5073025;28;20228;-71
2023/05/01 14:35:29;;;;;;;3.08;2.20;;;20.40;44.20;;;;;;5079795;28;20288;-68
2023/05/01 14:38:21;;;;;;;3.97;2.17;;;20.20;44.40;;;;;;5081254;28;20805;-71
2023/05/01 14:41:13;;;;;;;4.32;1.77;;;20.00;43.40;;;;;;5073897;28;20219;-71
2023/05/01 14:44:04;;;;;;;4.75;2.10;;;19.90;44.10;;;;;;5078735;28;20224;-69
2023/05/01 14:46:53;;;;;;;6.82;2.05;;;19.90;44.50;;;;;;5072054;28;20223;-71
2023/05/01 14:49:42;;;;;;;3.80;1.83;;;19.90;44.10;;;;;;5076698;28;20227;-69
2023/05/01 14:52:32;;;;;;;4.88;1.70;;;20.00;44.20;;;;;;5078169;28;20238;-69
2023/05/01 14:55:26;;;;;;;5.28;2.25;;;20.10;43.80;;;;;;5106564;27;20228;-69